Time;durP1;ratioP1;P1;durP2;ratioP2;P2;SDS_P1;SDS_P2;PMS_P1;PMS_P2;Temp;Humidity;BMP_temperature;BMP_pressure;BME280_temperature;BME280_humidity;BME280_pressure;Samples;Min_cycle;Max_cycle;Signal;HPM_P1;HPM_P2
2023/09/11 00:00:10;;;;;;;15.75;9.90;;;;;;;16.48;100.00;94059.25;5085679;28;20044;-57
2023/09/11 00:02:37;;;;;;;14.45;10.18;;;;;;;16.45;100.00;94058.16;5091291;28;20530;-58
2023/09/11 00:05:04;;;;;;;15.37;10.73;;;;;;;16.45;100.00;94060.91;5091364;28;20048;-58
2023/09/11 00:07:31;;;;;;;13.82;10.48;;;;;;;16.43;100.00;94054.28;5091004;28;20051;-57
2023/09/11 00:09:58;;;;;;;14.20;10.13;;;;;;;16.36;100.00;94049.78;5091245;28;20051;-58
2023/09/11 00:12:25;;;;;;;16.02;11.10;;;;;;;16.36;100.00;94050.56;5090915;28;20044;-57
2023/09/11 00:14:51;;;;;;;14.77;10.20;;;;;;;16.33;100.00;94050.69;5091075;28;20050;-57
2023/09/11 00:17:18;;;;;;;17.63;12.17;;;;;;;16.28;100.00;94042.94;5091559;28;20066;-58
2023/09/11 00:19:45;;;;;;;17.42;11.30;;;;;;;16.26;100.00;94042.59;5090627;28;20042;-57
2023/09/11 00:22:12;;;;;;;14.95;10.57;;;;;;;16.22;100.00;94041.97;5091632;28;20106;-57
2023/09/11 00:24:39;;;;;;;16.95;10.90;;;;;;;16.21;100.00;94035.66;5090480;28;20048;-57
2023/09/11 00:27:05;;;;;;;15.40;10.80;;;;;;;16.20;100.00;94044.41;5091356;28;20052;-57
2023/09/11 00:29:32;;;;;;;15.63;10.87;;;;;;;16.16;100.00;94042.56;5090629;28;20051;-59
2023/09/11 00:31:59;;;;;;;14.98;10.48;;;;;;;16.13;100.00;94034.38;5090873;28;20048;-57
2023/09/11 00:34:26;;;;;;;15.10;10.35;;;;;;;16.07;100.00;94031.38;5090633;28;20052;-57
2023/09/11 00:36:52;;;;;;;17.25;10.27;;;;;;;16.04;100.00;94037.06;5091087;28;20036;-58
2023/09/11 00:39:19;;;;;;;15.60;10.40;;;;;;;15.97;100.00;94033.28;5080865;28;20040;-58
2023/09/11 00:41:46;;;;;;;14.63;10.47;;;;;;;15.94;100.00;94034.19;5054426;28;20098;-58
2023/09/11 00:44:13;;;;;;;14.40;10.20;;;;;;;15.90;100.00;94035.56;5066332;28;20056;-59
2023/09/11 00:46:40;;;;;;;13.95;10.48;;;;;;;15.88;100.00;94029.69;5070310;28;20048;-58
2023/09/11 00:49:08;;;;;;;15.13;10.30;;;;;;;15.85;100.00;94031.34;5070523;28;20587;-59
2023/09/11 00:51:35;;;;;;;14.38;10.25;;;;;;;15.82;100.00;94034.25;5070082;28;20041;-58
2023/09/11 00:54:02;;;;;;;15.17;10.17;;;;;;;15.81;100.00;94027.16;5070392;28;20048;-58
2023/09/11 00:56:30;;;;;;;16.65;10.75;;;;;;;15.77;100.00;94022.53;5055746;28;20047;-58
2023/09/11 00:58:58;;;;;;;13.98;10.25;;;;;;;15.75;100.00;94021.41;5052501;28;20049;-58
2023/09/11 01:01:25;;;;;;;18.80;11.10;;;;;;;15.71;100.00;94023.50;5069982;28;20040;-57
2023/09/11 01:03:52;;;;;;;15.45;10.30;;;;;;;15.69;100.00;94020.41;5070052;28;20044;-58
2023/09/11 01:06:20;;;;;;;14.60;10.33;;;;;;;15.65;100.00;94017.75;5070007;28;20410;-58
2023/09/11 01:08:47;;;;;;;14.68;10.40;;;;;;;15.62;100.00;94024.19;5069434;28;20740;-58
2023/09/11 01:11:14;;;;;;;14.90;10.50;;;;;;;15.56;100.00;94014.91;5070392;28;20103;-58
2023/09/11 01:13:41;;;;;;;15.57;10.10;;;;;;;15.52;100.00;94023.31;5069418;28;20048;-58
2023/09/11 01:16:28;;;;;;;13.70;10.07;;;;;;;15.48;100.00;94025.41;5069763;28;20052;-58
2023/09/11 01:19:16;;;;;;;14.73;10.23;;;;;;;15.45;100.00;94018.00;5068966;28;21534;-58
2023/09/11 01:22:12;;;;;;;13.77;9.82;;;;;;;15.46;100.00;94019.56;5069664;28;20605;-58
2023/09/11 01:24:44;;;;;;;14.80;10.45;;;;;;;15.40;100.00;94015.81;5065649;28;20110;-58
2023/09/11 01:27:55;;;;;;;16.98;10.95;;;;;;;15.38;100.00;94021.00;5089776;28;20047;-59
2023/09/11 01:30:24;;;;;;;14.48;10.57;;;;;;;15.38;100.00;94018.25;5089110;28;21748;-58
2023/09/11 01:32:52;;;;;;;14.50;10.70;;;;;;;15.36;100.00;94012.38;5089051;28;20550;-58
2023/09/11 01:35:20;;;;;;;14.63;10.75;;;;;;;15.36;100.00;94015.16;5090087;28;20044;-58
2023/09/11 01:37:49;;;;;;;16.75;10.77;;;;;;;15.33;100.00;94011.28;5089553;28;20481;-58
2023/09/11 01:40:15;;;;;;;16.25;11.40;;;;;;;15.32;100.00;94012.50;5090135;28;20388;-58
2023/09/11 01:42:49;;;;;;;15.68;10.32;;;;;;;15.29;100.00;94007.06;5089375;28;20035;-58
2023/09/11 01:45:17;;;;;;;18.23;11.10;;;;;;;15.24;100.00;94005.66;5090094;28;20059;-58
2023/09/11 01:47:46;;;;;;;17.33;11.50;;;;;;;15.26;100.00;94013.50;5089212;28;20044;-58
2023/09/11 01:50:15;;;;;;;16.60;10.30;;;;;;;15.19;100.00;94008.94;5089526;28;20063;-58
2023/09/11 01:52:44;;;;;;;16.85;10.65;;;;;;;15.14;100.00;94013.06;5089301;28;20044;-58
2023/09/11 01:55:11;;;;;;;15.65;11.23;;;;;;;15.11;100.00;94013.16;5085836;28;20052;-58
2023/09/11 01:57:38;;;;;;;14.87;10.50;;;;;;;15.08;100.00;94011.28;5069578;28;20040;-57
2023/09/11 02:00:05;;;;;;;14.25;10.50;;;;;;;15.05;100.00;94009.41;5081186;28;20054;-58
2023/09/11 02:02:32;;;;;;;16.15;10.23;;;;;;;15.03;100.00;94012.63;5088760;28;20047;-58
2023/09/11 02:04:59;;;;;;;16.17;10.48;;;;;;;15.01;100.00;94009.53;5088882;28;20052;-58
2023/09/11 02:07:26;;;;;;;16.00;11.25;;;;;;;14.88;100.00;93997.69;5088655;28;20040;-57
2023/09/11 02:09:52;;;;;;;15.63;10.93;;;;;;;14.85;100.00;93998.56;5089679;28;20349;-58
2023/09/11 02:12:19;;;;;;;16.67;11.10;;;;;;;14.86;100.00;94006.41;5089244;28;20040;-58
2023/09/11 02:14:46;;;;;;;18.02;11.32;;;;;;;14.85;100.00;93999.34;5089066;28;20084;-58
2023/09/11 02:17:13;;;;;;;17.52;11.60;;;;;;;14.83;100.00;93998.22;5089194;28;20036;-58
2023/09/11 02:19:39;;;;;;;15.93;10.85;;;;;;;14.79;100.00;93998.38;5088864;28;20055;-58
2023/09/11 02:22:06;;;;;;;18.27;11.47;;;;;;;14.77;100.00;93998.03;5089029;28;20036;-58
2023/09/11 02:24:33;;;;;;;16.25;10.90;;;;;;;14.76;100.00;93993.69;5088918;28;20070;-57
2023/09/11 02:26:59;;;;;;;17.55;12.38;;;;;;;14.72;100.00;93995.78;5088970;28;20516;-58
2023/09/11 02:29:26;;;;;;;17.75;12.32;;;;;;;14.66;100.00;94003.84;5088598;28;20507;-57
2023/09/11 02:31:53;;;;;;;34.10;22.02;;;;;;;14.65;100.00;94004.28;5089316;28;20408;-58
2023/09/11 02:34:20;;;;;;;21.30;13.13;;;;;;;14.63;100.00;94007.50;5089017;28;20037;-58
2023/09/11 02:36:46;;;;;;;18.15;12.70;;;;;;;14.64;100.00;93997.22;5088698;28;20040;-58
2023/09/11 02:39:13;;;;;;;20.98;12.15;;;;;;;14.66;100.00;94005.84;5088924;28;20040;-58
2023/09/11 02:41:40;;;;;;;18.50;12.23;;;;;;;14.65;100.00;93999.56;5088879;28;20051;-58
2023/09/11 02:44:07;;;;;;;16.45;12.07;;;;;;;14.65;100.00;94002.31;5088982;28;20040;-58
2023/09/11 02:46:34;;;;;;;16.37;12.40;;;;;;;14.65;100.00;94010.59;5088722;28;20480;-58
2023/09/11 02:49:00;;;;;;;17.58;12.00;;;;;;;14.64;100.00;93997.22;5089016;28;20044;-58
2023/09/11 02:51:28;;;;;;;18.38;11.88;;;;;;;14.64;100.00;93998.00;5088597;28;20089;-57
2023/09/11 02:53:55;;;;;;;20.10;13.02;;;;;;;14.64;100.00;94000.75;5089038;28;20395;-58
2023/09/11 02:56:21;;;;;;;19.42;11.95;;;;;;;14.61;100.00;93993.38;5076121;28;20113;-58
2023/09/11 02:58:48;;;;;;;20.00;13.10;;;;;;;14.61;100.00;93993.38;5071917;28;20039;-58
2023/09/11 03:01:17;;;;;;;18.35;13.15;;;;;;;14.58;100.00;93992.22;5088740;28;20040;-58
2023/09/11 03:03:43;;;;;;;18.58;12.82;;;;;;;14.51;100.00;93988.91;5088282;28;20492;-58
2023/09/11 03:06:10;;;;;;;18.67;12.55;;;;;;;14.46;100.00;93994.97;5088584;28;20047;-59
2023/09/11 03:08:37;;;;;;;21.13;13.02;;;;;;;14.36;100.00;93999.56;5088309;28;20601;-58
2023/09/11 03:11:07;;;;;;;18.40;12.90;;;;;;;14.35;100.00;93998.81;5089149;28;20082;-58
2023/09/11 03:13:35;;;;;;;20.30;13.18;;;;;;;14.36;100.00;94002.31;5088194;28;20040;-58
2023/09/11 03:16:12;;;;;;;20.08;13.75;;;;;;;14.35;100.00;94001.56;5088702;28;20058;-58
2023/09/11 03:18:40;;;;;;;19.73;13.75;;;;;;;14.36;100.00;94002.31;5090409;28;20065;-58
2023/09/11 03:21:08;;;;;;;19.42;13.82;;;;;;;14.35;100.00;93992.50;5092316;28;20052;-58
2023/09/11 03:23:35;;;;;;;20.97;13.33;;;;;;;14.36;100.00;94005.84;5091847;28;20468;-57
2023/09/11 03:26:02;;;;;;;24.23;14.00;;;;;;;14.30;100.00;94004.84;5092364;28;20056;-58
2023/09/11 03:28:30;;;;;;;20.83;13.63;;;;;;;14.31;100.00;93995.38;5091461;28;20046;-58
2023/09/11 03:31:02;;;;;;;23.77;13.75;;;;;;;14.25;100.00;93993.59;5092278;28;20042;-58
2023/09/11 03:33:29;;;;;;;22.35;15.40;;;;;;;14.28;100.00;93993.47;5091637;28;20397;-57
2023/09/11 03:35:58;;;;;;;25.07;15.50;;;;;;;14.29;100.00;93995.03;5084609;28;20045;-58
2023/09/11 03:38:25;;;;;;;21.80;15.02;;;;;;;14.29;100.00;93991.50;5071916;28;20047;-57
2023/09/11 03:40:52;;;;;;;25.00;14.82;;;;;;;14.31;100.00;93989.84;5091595;28;20046;-58
2023/09/11 03:43:19;;;;;;;22.08;14.20;;;;;;;14.24;100.00;93984.50;5092274;28;20040;-58
2023/09/11 03:45:46;;;;;;;21.00;14.85;;;;;;;14.25;100.00;93985.31;5091458;28;20044;-58
2023/09/11 03:48:14;;;;;;;21.13;14.70;;;;;;;14.23;100.00;93991.25;5091870;28;20051;-58
2023/09/11 03:50:41;;;;;;;20.85;14.00;;;;;;;14.20;100.00;93997.66;5078311;28;20062;-58
2023/09/11 03:53:08;;;;;;;21.08;14.40;;;;;;;14.20;100.00;93994.88;5091842;28;20056;-58
2023/09/11 03:55:36;;;;;;;22.88;14.68;;;;;;;14.15;100.00;93987.16;5087359;28;20040;-58
2023/09/11 03:58:03;;;;;;;20.58;14.38;;;;;;;14.15;100.00;93992.69;5081701;28;20093;-58
2023/09/11 04:00:30;;;;;;;22.43;14.60;;;;;;;14.13;100.00;93989.56;5091028;28;20054;-57
2023/09/11 04:02:56;;;;;;;20.98;14.23;;;;;;;14.11;100.00;93989.25;5091263;28;20097;-58
2023/09/11 04:05:23;;;;;;;20.95;14.05;;;;;;;14.13;100.00;93992.34;5091330;28;20059;-58
2023/09/11 04:07:50;;;;;;;24.42;15.18;;;;;;;14.15;100.00;93987.91;5090680;28;21626;-58
2023/09/11 04:10:17;;;;;;;19.40;13.98;;;;;;;14.16;100.00;93994.22;5091677;28;20056;-58
2023/09/11 04:12:44;;;;;;;21.70;14.13;;;;;;;14.16;100.00;93989.47;5091001;28;20058;-58
2023/09/11 04:15:10;;;;;;;20.67;14.60;;;;;;;14.15;100.00;93987.16;5091341;28;20048;-58
2023/09/11 04:17:37;;;;;;;21.75;15.07;;;;;;;14.14;100.00;93988.34;5089424;28;20044;-58
2023/09/11 04:20:05;;;;;;;23.40;14.63;;;;;;;14.13;100.00;93992.34;5091355;28;20044;-58
2023/09/11 04:22:32;;;;;;;19.08;13.93;;;;;;;14.12;100.00;93988.78;5090916;28;20376;-58
2023/09/11 04:24:59;;;;;;;23.37;14.90;;;;;;;14.08;100.00;93987.34;5092139;28;20177;-58
2023/09/11 04:27:25;;;;;;;21.63;14.25;;;;;;;14.02;100.00;93980.81;5105149;28;20100;-58
2023/09/11 04:29:52;;;;;;;20.42;14.40;;;;;;;13.95;100.00;93985.31;5089914;28;20403;-58
2023/09/11 04:32:20;;;;;;;21.35;14.40;;;;;;;13.96;100.00;93988.84;5091215;28;20050;-58
2023/09/11 04:34:47;;;;;;;22.17;15.07;;;;;;;13.98;100.00;93984.47;5090300;28;20040;-58
2023/09/11 04:37:16;;;;;;;20.73;14.80;;;;;;;14.00;100.00;93986.75;5098128;28;20044;-58
2023/09/11 04:39:43;;;;;;;22.38;14.77;;;;;;;13.89;100.00;93987.06;5100426;28;20054;-58
2023/09/11 04:42:10;;;;;;;24.05;15.52;;;;;;;13.87;100.00;93983.19;5091031;28;20040;-58
2023/09/11 04:44:36;;;;;;;23.90;15.65;;;;;;;13.86;100.00;93985.16;5089925;28;20148;-58
2023/09/11 04:47:03;;;;;;;22.98;15.55;;;;;;;13.77;100.00;93985.03;5090372;28;20050;-58
2023/09/11 04:49:30;;;;;;;21.43;15.03;;;;;;;13.83;100.00;93988.78;5090302;28;20075;-57
2023/09/11 04:51:57;;;;;;;22.25;14.60;;;;;;;13.85;100.00;93985.59;5090755;28;20527;-58
2023/09/11 04:54:23;;;;;;;22.17;15.55;;;;;;;13.87;100.00;93988.72;5089459;28;20044;-58
2023/09/11 04:56:50;;;;;;;26.42;16.65;;;;;;;13.84;100.00;93987.56;5089557;28;21508;-58
2023/09/11 04:59:17;;;;;;;24.17;15.02;;;;;;;13.85;100.00;93991.13;5090744;28;20382;-58
2023/09/11 05:01:43;;;;;;;23.57;16.17;;;;;;;13.91;100.00;93986.63;5089641;28;20455;-58
2023/09/11 05:04:10;;;;;;;24.10;15.35;;;;;;;13.98;100.00;93991.94;5090218;28;20059;-58
2023/09/11 05:06:37;;;;;;;23.88;16.35;;;;;;;13.98;100.00;93991.94;5089380;28;20040;-58
2023/09/11 05:09:04;;;;;;;24.95;15.95;;;;;;;14.01;100.00;93991.06;5090284;28;20431;-58
2023/09/11 05:11:38;;;;;;;23.40;16.13;;;;;;;14.08;100.00;93987.34;5089553;28;20454;-58
2023/09/11 05:14:05;;;;;;;23.20;16.10;;;;;;;14.04;100.00;93986.66;5089971;28;20074;-58
2023/09/11 05:16:32;;;;;;;24.85;16.45;;;;;;;14.09;100.00;93986.16;5089368;28;20044;-58
2023/09/11 05:18:58;;;;;;;23.88;15.75;;;;;;;14.14;100.00;93991.13;5090212;28;20508;-58
2023/09/11 05:21:25;;;;;;;25.65;15.48;;;;;;;14.21;100.00;93995.69;5089455;28;20408;-57
2023/09/11 05:23:52;;;;;;;25.25;16.27;;;;;;;14.27;100.00;93991.16;5090064;28;20040;-58
2023/09/11 05:26:20;;;;;;;22.77;15.17;;;;;;;14.19;100.00;93988.59;5092206;28;20078;-58
2023/09/11 05:28:46;;;;;;;24.15;16.15;;;;;;;14.13;100.00;93993.09;5102361;28;20046;-58
2023/09/11 05:31:13;;;;;;;25.33;15.65;;;;;;;14.25;100.00;93999.13;5090287;28;20412;-58
2023/09/11 05:33:40;;;;;;;23.10;16.02;;;;;;;14.27;100.00;93999.44;5089469;28;20040;-58
2023/09/11 05:36:07;;;;;;;25.10;15.70;;;;;;;14.35;100.00;93992.50;5089345;28;20062;-58
2023/09/11 05:38:33;;;;;;;23.40;15.77;;;;;;;14.41;100.00;93987.19;5089372;28;20073;-58
2023/09/11 05:41:00;;;;;;;21.08;14.52;;;;;;;14.39;100.00;93984.91;5088842;28;20485;-58
2023/09/11 05:43:28;;;;;;;22.35;15.35;;;;;;;14.47;100.00;93985.47;5088934;28;20070;-58
2023/09/11 05:45:55;;;;;;;20.55;14.55;;;;;;;14.59;100.00;93984.75;5089457;28;20040;-59
2023/09/11 05:48:22;;;;;;;22.48;15.15;;;;;;;14.65;100.00;93988.50;5089524;28;20398;-59
2023/09/11 05:50:52;;;;;;;23.67;15.07;;;;;;;14.68;100.00;93976.56;5088502;28;20243;-59
2023/09/11 05:53:19;;;;;;;21.70;14.90;;;;;;;14.70;100.00;93993.47;5089221;28;20054;-60
2023/09/11 05:55:46;;;;;;;20.38;14.68;;;;;;;14.80;100.00;93993.59;5089223;28;20469;-59
2023/09/11 05:58:14;;;;;;;20.70;13.75;;;;;;;14.85;100.00;93990.28;5089250;28;20048;-59
2023/09/11 06:00:41;;;;;;;20.27;14.10;;;;;;;14.89;100.00;93990.94;5089307;28;20515;-59
2023/09/11 06:03:08;;;;;;;19.13;13.63;;;;;;;15.02;100.00;93993.72;5089230;28;20040;-59
2023/09/11 06:05:36;;;;;;;23.60;14.57;;;;;;;15.11;100.00;93991.84;5088795;28;20068;-59
2023/09/11 06:08:04;;;;;;;21.25;14.57;;;;;;;15.11;100.00;93993.81;5089354;28;20044;-59
2023/09/11 06:10:31;;;;;;;20.58;13.48;;;;;;;15.30;100.00;93995.56;5086729;28;20043;-59
2023/09/11 06:12:57;;;;;;;20.02;13.95;;;;;;;15.35;100.00;93991.47;5084402;28;20051;-59
2023/09/11 06:15:25;;;;;;;19.80;13.87;;;;;;;15.37;100.00;93984.28;5076830;28;20363;-59
2023/09/11 06:17:52;;;;;;;19.85;14.40;;;;;;;15.35;100.00;93983.16;5086798;28;21566;-59
2023/09/11 06:20:21;;;;;;;19.75;13.82;;;;;;;15.37;100.00;93978.75;5088824;28;20055;-59
2023/09/11 06:22:48;;;;;;;21.58;14.80;;;;;;;15.42;100.00;93977.41;5088407;28;20058;-59
2023/09/11 06:25:15;;;;;;;21.02;14.35;;;;;;;15.46;100.00;93982.84;5076846;28;20455;-59
2023/09/11 06:27:42;;;;;;;20.87;14.73;;;;;;;15.42;100.00;93976.66;5091446;28;20046;-59
2023/09/11 06:30:09;;;;;;;22.80;14.50;;;;;;;15.53;100.00;93979.81;5088350;28;20044;-60
2023/09/11 06:32:36;;;;;;;24.42;14.52;;;;;;;15.45;100.00;93978.50;5087646;28;20040;-59
2023/09/11 06:35:06;;;;;;;22.48;14.05;;;;;;;15.54;100.00;93979.38;5087412;28;20100;-59
2023/09/11 06:37:33;;;;;;;25.35;14.55;;;;;;;15.72;100.00;93978.03;5073323;28;20515;-59
2023/09/11 06:40:00;;;;;;;20.37;14.50;;;;;;;15.90;100.00;93983.75;5080724;28;20075;-60
2023/09/11 06:42:26;;;;;;;22.08;14.77;;;;;;;16.11;100.00;93982.19;5088479;28;20044;-59
2023/09/11 06:44:54;;;;;;;20.85;15.23;;;;;;;16.14;100.00;93980.56;5089082;28;20404;-59
2023/09/11 06:47:21;;;;;;;18.55;14.32;;;;;;;16.20;100.00;93987.06;5088881;28;20044;-60
2023/09/11 06:49:48;;;;;;;25.42;14.75;;;;;;;16.21;100.00;93985.81;5088595;28;20408;-59
2023/09/11 06:52:16;;;;;;;21.23;14.73;;;;;;;16.45;100.00;93986.13;5091958;28;20046;-60
2023/09/11 06:54:43;;;;;;;22.42;14.70;;;;;;;16.76;100.00;93988.94;5092249;28;20117;-59
2023/09/11 06:57:10;;;;;;;23.27;15.10;;;;;;;17.05;100.00;93976.78;5092652;28;20040;-60
2023/09/11 06:59:37;;;;;;;19.58;13.63;;;;;;;18.77;100.00;93971.50;5092461;28;20058;-59
2023/09/11 07:02:04;;;;;;;17.50;12.82;;;;;;;22.47;100.00;93966.75;5079616;28;20044;-57
2023/09/11 07:04:31;;;;;;;16.60;12.90;;;;;;;24.63;100.00;93967.72;5092207;28;20055;-57
2023/09/11 07:06:58;;;;;;;16.50;12.23;;;;;;;25.98;95.52;93964.16;5079077;28;20051;-57
2023/09/11 07:09:24;;;;;;;15.60;12.18;;;;;;;25.92;93.53;93969.03;5092373;28;20040;-55
2023/09/11 07:11:56;;;;;;;15.60;11.60;;;;;;;26.54;89.62;93965.97;5079019;28;20046;-57
2023/09/11 07:14:24;;;;;;;13.63;11.40;;;;;;;26.73;86.54;93959.75;5092677;28;20044;-58
2023/09/11 07:16:50;;;;;;;15.27;11.50;;;;;;;27.27;83.99;93959.91;5091837;28;20854;-58
2023/09/11 07:19:17;;;;;;;17.25;11.90;;;;;;;27.18;84.81;93965.06;5092439;28;20044;-57
2023/09/11 07:21:44;;;;;;;12.70;11.07;;;;;;;28.51;75.46;93966.34;5092067;28;20392;-57
2023/09/11 07:24:11;;;;;;;13.35;10.80;;;;;;;29.44;72.80;93951.94;5092351;28;20073;-58
2023/09/11 07:26:39;;;;;;;14.35;10.63;;;;;;;31.16;62.99;93958.84;5091844;28;20373;-58
2023/09/11 07:29:06;;;;;;;13.40;10.23;;;;;;;31.99;59.19;93962.25;5092389;28;20412;-58
2023/09/11 07:31:33;;;;;;;16.60;10.63;;;;;;;32.20;55.94;93956.56;5092011;28;20048;-58
2023/09/11 07:34:00;;;;;;;13.52;10.10;;;;;;;32.30;55.28;93960.41;5092276;28;20089;-58
2023/09/11 07:36:28;;;;;;;13.77;10.15;;;;;;;30.84;60.13;93964.72;5092054;28;20036;-58
2023/09/11 07:38:56;;;;;;;11.13;9.93;;;;;;;32.48;54.66;93950.09;5092091;28;20054;-59
2023/09/11 07:41:23;;;;;;;13.23;10.40;;;;;;;32.45;53.82;93957.63;5092290;28;20044;-58
2023/09/11 07:43:50;;;;;;;15.10;10.50;;;;;;;32.64;53.26;93956.63;5090768;28;20400;-58
2023/09/11 07:46:22;;;;;;;12.45;10.60;;;;;;;33.73;50.67;93950.66;5091956;28;20413;-59
2023/09/11 07:48:49;;;;;;;12.38;9.98;;;;;;;34.01;48.14;93948.94;5091537;28;20037;-58
2023/09/11 07:51:17;;;;;;;13.38;10.85;;;;;;;33.17;50.03;93958.91;5092122;28;20104;-59
2023/09/11 07:53:44;;;;;;;12.30;11.00;;;;;;;32.90;50.95;93963.34;5091521;28;20043;-59
2023/09/11 07:56:12;;;;;;;12.15;10.00;;;;;;;33.97;49.14;93951.44;5091658;28;20485;-59
2023/09/11 07:58:40;;;;;;;12.73;9.55;;;;;;;34.55;46.84;93949.63;5090993;28;20063;-59
2023/09/11 08:01:07;;;;;;;14.68;10.38;;;;;;;32.03;53.52;93959.84;5091870;28;20052;-59
2023/09/11 08:03:35;;;;;;;11.52;10.32;;;;;;;31.06;57.45;93952.13;5090163;28;20036;-58
2023/09/11 08:06:04;;;;;;;12.30;10.23;;;;;;;33.68;53.56;93948.00;5091333;28;20066;-59
2023/09/11 08:08:31;;;;;;;11.38;9.18;;;;;;;36.12;46.95;93949.66;5090958;28;20044;-58
2023/09/11 08:10:58;;;;;;;11.43;9.15;;;;;;;37.08;43.01;93951.13;5091878;28;20408;-59
2023/09/11 08:13:25;;;;;;;12.30;9.25;;;;;;;36.99;41.84;93961.19;5084855;28;20506;-57
2023/09/11 08:15:53;;;;;;;13.20;9.35;;;;;;;37.38;40.28;93947.13;5084322;28;20036;-59
2023/09/11 08:18:21;;;;;;;13.00;9.73;;;;;;;37.45;39.90;93952.00;5091293;28;20511;-59
2023/09/11 08:20:49;;;;;;;12.00;9.35;;;;;;;38.19;38.43;93948.38;5091095;28;20485;-59
2023/09/11 08:23:16;;;;;;;14.10;8.90;;;;;;;38.34;38.64;93956.72;5078233;28;20040;-59
2023/09/11 08:25:43;;;;;;;12.50;9.07;;;;;;;38.39;37.13;93952.78;5090422;28;20052;-59
2023/09/11 08:28:10;;;;;;;12.48;9.27;;;;;;;37.51;39.37;93954.56;5091437;28;20044;-59
2023/09/11 08:30:36;;;;;;;10.33;8.50;;;;;;;39.06;37.02;93951.34;5089261;28;20048;-58
2023/09/11 08:33:07;;;;;;;12.63;8.77;;;;;;;40.40;34.52;93944.25;5091516;28;20097;-59
2023/09/11 08:35:34;;;;;;;12.77;9.25;;;;;;;40.13;33.86;93945.28;5090493;28;20052;-59
2023/09/11 08:38:01;;;;;;;11.65;8.75;;;;;;;39.91;33.97;93947.38;5090829;28;20048;-59
2023/09/11 08:40:31;;;;;;;11.77;8.52;;;;;;;40.85;32.55;93938.66;5090271;28;20455;-58
2023/09/11 08:42:58;;;;;;;10.83;8.67;;;;;;;40.79;32.28;93940.34;5090885;28;20048;-59
2023/09/11 08:45:26;;;;;;;11.10;8.45;;;;;;;38.91;35.23;93940.91;5090053;28;20044;-58
2023/09/11 08:47:56;;;;;;;10.57;8.85;;;;;;;40.03;33.54;93938.84;5090903;28;20488;-59
2023/09/11 08:50:30;;;;;;;10.05;8.30;;;;;;;41.84;30.88;93928.41;5090672;28;20052;-59
2023/09/11 08:53:00;;;;;;;9.60;7.88;;;;;;;42.15;30.64;93929.53;5089994;28;21773;-59
2023/09/11 08:55:28;;;;;;;10.40;7.80;;;;;;;43.14;28.98;93933.19;5088840;28;20159;-59
2023/09/11 08:57:59;;;;;;;10.35;7.97;;;;;;;43.53;28.48;93930.38;5090733;28;20416;-59
2023/09/11 09:00:28;;;;;;;10.90;7.65;;;;;;;43.67;27.72;93922.50;5090155;28;20044;-59
2023/09/11 09:02:55;;;;;;;9.25;7.68;;;;;;;43.43;28.35;93924.03;5089423;28;20054;-59
2023/09/11 09:05:22;;;;;;;11.48;7.88;;;;;;;43.60;27.73;93922.78;5090161;28;20046;-59
2023/09/11 09:07:51;;;;;;;11.03;7.90;;;;;;;40.04;30.59;93928.84;5089795;28;20048;-59
2023/09/11 09:10:18;;;;;;;9.57;8.07;;;;;;;39.94;32.22;93926.03;5090582;28;20054;-59
2023/09/11 09:12:46;;;;;;;9.70;7.47;;;;;;;41.19;29.51;93930.00;5089624;28;20265;-59
2023/09/11 09:15:14;;;;;;;9.13;7.95;;;;;;;40.13;31.60;93928.03;5090219;28;20062;-59
2023/09/11 09:17:41;;;;;;;7.70;6.90;;;;;;;42.36;29.64;93920.75;5089338;28;20569;-59
2023/09/11 09:20:10;;;;;;;9.30;7.27;;;;;;;43.75;26.64;93916.44;5090331;28;20059;-59
2023/09/11 09:22:56;;;;;;;8.52;7.18;;;;;;;41.06;27.76;93914.06;5088580;28;20258;-59
2023/09/11 09:25:24;;;;;;;9.13;7.30;;;;;;;39.69;30.20;93909.19;5090424;28;20097;-59
2023/09/11 09:27:52;;;;;;;9.38;8.07;;;;;;;37.90;32.74;93914.66;5088903;28;20408;-59
2023/09/11 09:30:19;;;;;;;9.23;7.60;;;;;;;37.88;32.71;93909.53;5090045;28;20055;-59
2023/09/11 09:32:51;;;;;;;8.57;7.20;;;;;;;38.25;31.70;93909.47;5089427;28;20040;-59
2023/09/11 09:35:25;;;;;;;9.07;6.30;;;;;;;39.56;28.30;93898.19;5088442;28;20058;-59
2023/09/11 09:37:56;;;;;;;7.82;6.18;;;;;;;40.85;25.95;93897.59;5076965;28;21014;-59
2023/09/11 09:40:38;;;;;;;9.77;6.10;;;;;;;38.79;26.86;93899.09;5089839;28;20048;-59
2023/09/11 09:43:08;;;;;;;8.70;6.25;;;;;;;41.11;25.89;93895.66;5088916;28;20236;-59
2023/09/11 09:45:40;;;;;;;7.33;5.87;;;;;;;42.89;23.57;93891.38;5089311;28;20036;-59
2023/09/11 09:48:16;;;;;;;6.70;6.00;;;;;;;42.69;23.61;93891.69;5089883;28;20493;-60
2023/09/11 09:51:04;;;;;;;8.60;6.35;;;;;;;41.27;24.89;93890.22;5089224;28;20044;-60
2023/09/11 09:53:32;;;;;;;6.97;5.80;;;;;;;42.42;23.73;93889.38;5089049;28;20056;-59
2023/09/11 09:56:03;;;;;;;8.25;5.70;;;;;;;43.77;22.44;93883.97;5089684;28;20036;-59
2023/09/11 09:58:43;;;;;;;7.97;6.00;;;;;;;44.74;21.63;93881.81;5088857;28;20044;-59
2023/09/11 10:01:13;;;;;;;7.57;5.70;;;;;;;45.44;20.41;93873.63;5089602;28;20047;-60
2023/09/11 10:03:51;;;;;;;7.10;5.88;;;;;;;43.95;22.36;93882.06;5087370;28;20047;-59
2023/09/11 10:06:31;;;;;;;7.63;6.00;;;;;;;44.88;21.55;93875.22;5088806;28;20062;-60
2023/09/11 10:09:05;;;;;;;6.82;5.82;;;;;;;44.64;21.34;93869.72;5088299;28;21525;-60
2023/09/11 10:11:33;;;;;;;7.13;5.80;;;;;;;44.86;20.90;93867.19;5089063;28;20533;-59
2023/09/11 10:14:03;;;;;;;9.57;5.30;;;;;;;43.64;21.14;93863.06;5089245;28;20075;-60
2023/09/11 10:16:30;;;;;;;6.40;5.20;;;;;;;44.65;19.48;93865.41;5088580;28;20040;-59
2023/09/11 10:18:59;;;;;;;6.93;4.93;;;;;;;44.35;19.75;93862.44;5089358;28;20052;-60
2023/09/11 10:21:26;;;;;;;5.57;4.80;;;;;;;43.93;18.06;93863.84;5088611;28;20066;-60
2023/09/11 10:23:54;;;;;;;7.63;5.10;;;;;;;42.88;19.98;93864.66;5089216;28;20048;-59
2023/09/11 10:26:34;;;;;;;7.55;5.20;;;;;;;43.59;19.38;93860.56;5089032;28;20044;-60
2023/09/11 10:29:05;;;;;;;7.82;5.10;;;;;;;42.30;19.57;93865.56;5088392;28;21606;-59
2023/09/11 10:31:48;;;;;;;6.20;4.90;;;;;;;43.68;19.43;93848.09;5088736;28;20054;-60
2023/09/11 10:34:15;;;;;;;6.82;5.20;;;;;;;40.15;21.11;93855.56;5089018;28;20408;-58
2023/09/11 10:36:52;;;;;;;6.90;5.23;;;;;;;38.90;23.17;93850.47;5088698;28;20051;-58
2023/09/11 10:39:20;;;;;;;7.10;5.60;;;;;;;41.42;21.18;93846.56;5089181;28;20044;-58
2023/09/11 10:41:47;;;;;;;6.93;5.20;;;;;;;43.25;19.92;93837.81;5088167;28;20062;-58
2023/09/11 10:44:15;;;;;;;6.80;4.90;;;;;;;43.38;19.92;93838.50;5088860;28;20044;-58
2023/09/11 10:46:48;;;;;;;8.32;4.78;;;;;;;43.62;17.96;93834.03;5088600;28;20400;-58
2023/09/11 10:49:17;;;;;;;5.60;4.50;;;;;;;44.89;17.10;93836.94;5088989;28;20356;-58
2023/09/11 10:51:48;;;;;;;5.75;4.80;;;;;;;45.32;17.28;93832.47;5088350;28;20128;-58
2023/09/11 10:54:19;;;;;;;8.20;4.82;;;;;;;44.22;17.51;93826.38;5088965;28;20074;-58
2023/09/11 10:56:48;;;;;;;7.15;4.68;;;;;;;43.64;17.61;93824.75;5088236;28;20089;-58
2023/09/11 10:59:16;;;;;;;6.63;4.95;;;;;;;43.30;18.07;93821.47;5088890;28;20044;-59
2023/09/11 11:01:47;;;;;;;6.67;4.83;;;;;;;41.28;20.23;93825.50;5088436;28;20052;-58
2023/09/11 11:04:16;;;;;;;6.68;4.80;;;;;;;42.31;19.24;93826.69;5088927;28;20079;-58
2023/09/11 11:06:48;;;;;;;6.85;4.93;;;;;;;42.85;18.91;93822.63;5088011;28;20461;-59
2023/09/11 11:09:29;;;;;;;8.88;5.07;;;;;;;40.31;20.15;93821.44;5088738;28;20044;-58
2023/09/11 11:12:04;;;;;;;6.10;4.70;;;;;;;40.60;20.22;93823.28;5075525;28;20652;-58
2023/09/11 11:14:32;;;;;;;7.87;4.80;;;;;;;41.00;19.21;93816.53;5088423;28;20060;-58
2023/09/11 11:17:04;;;;;;;7.22;4.50;;;;;;;40.26;18.98;93822.50;5089022;28;20549;-58
2023/09/11 11:19:33;;;;;;;6.38;4.90;;;;;;;38.20;20.71;93815.97;5087135;28;20044;-58
2023/09/11 11:22:06;;;;;;;5.72;4.40;;;;;;;36.75;21.21;93814.84;5088648;28;20044;-58